Time;durP1;ratioP1;P1;durP2;ratioP2;P2;SDS_P1;SDS_P2;PMS_P1;PMS_P2;Temp;Humidity;BMP_temperature;BMP_pressure;BME280_temperature;BME280_humidity;BME280_pressure;Samples;Min_cycle;Max_cycle;Signal;HPM_P1;HPM_P2
2022/11/03 00:01:14;;;;;;;1.43;0.87;;;14.10;99.90;;;;;;5022450;28;20295;-64
2022/11/03 00:03:42;;;;;;;1.07;0.90;;;14.10;99.90;;;;;;5015660;28;20729;-64
2022/11/03 00:06:09;;;;;;;0.70;0.70;;;14.10;99.90;;;;;;5014163;28;20243;-64
2022/11/03 00:08:38;;;;;;;0.70;0.70;;;13.90;99.90;;;;;;5014682;28;20666;-65
2022/11/03 00:11:08;;;;;;;1.03;0.87;;;14.10;99.90;;;;;;5016883;28;20671;-64
2022/11/03 00:13:36;;;;;;;1.00;0.97;;;14.10;99.90;;;;;;5013960;28;20623;-64
2022/11/03 00:16:05;;;;;;;1.93;0.53;;;14.10;99.90;;;;;;5019271;28;20195;-64
2022/11/03 00:18:33;;;;;;;1.47;0.90;;;14.10;99.90;;;;;;5022098;28;20283;-64
2022/11/03 00:21:02;;;;;;;5.17;0.90;;;14.20;99.90;;;;;;5026752;28;20190;-64
2022/11/03 00:23:31;;;;;;;1.43;0.77;;;14.10;99.90;;;;;;5029556;28;20231;-65
2022/11/03 00:26:06;;;;;;;1.17;0.70;;;14.20;99.90;;;;;;5045289;28;20231;-66
2022/11/03 00:28:34;;;;;;;0.80;0.80;;;14.10;99.90;;;;;;5044511;28;20220;-64
2022/11/03 00:31:02;;;;;;;0.70;0.70;;;14.10;99.90;;;;;;5049138;28;20227;-65
2022/11/03 00:33:33;;;;;;;2.03;0.90;;;14.10;99.90;;;;;;5044343;28;20198;-65
2022/11/03 00:36:01;;;;;;;1.93;0.70;;;14.10;99.90;;;;;;5046986;28;20193;-65
2022/11/03 00:38:28;;;;;;;1.63;0.73;;;14.10;99.90;;;;;;5041589;28;20202;-65
2022/11/03 00:40:56;;;;;;;0.77;0.77;;;14.10;99.90;;;;;;5046332;28;20279;-64
2022/11/03 00:43:25;;;;;;;0.80;0.80;;;14.10;99.90;;;;;;5042896;28;20197;-64
2022/11/03 00:45:54;;;;;;;2.20;0.87;;;14.10;99.90;;;;;;5041156;28;20647;-64
2022/11/03 00:48:31;;;;;;;1.13;0.80;;;14.10;99.90;;;;;;5039709;28;20194;-64
2022/11/03 00:51:06;;;;;;;1.03;0.60;;;14.10;99.90;;;;;;5037784;28;20198;-64
2022/11/03 00:53:34;;;;;;;0.70;0.70;;;14.10;99.90;;;;;;5043180;28;20266;-63
2022/11/03 00:56:02;;;;;;;1.37;0.70;;;14.10;99.90;;;;;;5038900;28;20193;-64
2022/11/03 00:58:29;;;;;;;1.10;0.70;;;14.10;99.90;;;;;;5040367;28;20198;-65
2022/11/03 01:01:06;;;;;;;0.83;0.67;;;14.10;99.90;;;;;;5041652;28;20232;-64
2022/11/03 01:03:35;;;;;;;0.70;0.70;;;14.10;99.90;;;;;;5033808;28;20558;-65
2022/11/03 01:08:51;;;;;;;1.03;0.93;;;14.10;99.90;;;;;;5046546;28;20221;-65
2022/11/03 01:14:06;;;;;;;0.80;0.80;;;14.00;99.90;;;;;;5046105;28;20221;-65
2022/11/03 01:16:33;;;;;;;0.57;0.53;;;14.00;99.90;;;;;;5047904;28;20186;-65
2022/11/03 01:19:00;;;;;;;1.30;0.77;;;14.00;99.90;;;;;;5045985;28;20193;-65
2022/11/03 01:21:29;;;;;;;2.30;0.90;;;14.00;99.90;;;;;;5045971;28;20201;-64
2022/11/03 01:23:57;;;;;;;1.43;0.67;;;14.00;99.90;;;;;;5045832;28;20248;-65
2022/11/03 01:26:24;;;;;;;1.93;0.77;;;14.00;99.90;;;;;;5040611;28;20220;-65
2022/11/03 01:28:51;;;;;;;1.23;0.60;;;13.90;99.90;;;;;;5034434;28;20336;-65
2022/11/03 01:31:20;;;;;;;1.53;0.80;;;13.90;99.90;;;;;;5041444;28;20201;-66
2022/11/03 01:33:49;;;;;;;0.87;0.77;;;13.90;99.90;;;;;;5044626;28;20204;-66
2022/11/03 01:36:17;;;;;;;1.60;0.70;;;13.90;99.90;;;;;;5043032;28;20277;-66
2022/11/03 01:38:46;;;;;;;1.43;0.80;;;13.90;99.90;;;;;;5045468;28;20198;-65
2022/11/03 01:41:16;;;;;;;1.10;0.70;;;13.80;99.90;;;;;;5042878;28;20211;-65
2022/11/03 01:43:44;;;;;;;0.73;0.60;;;13.90;99.90;;;;;;5044649;28;20212;-65
2022/11/03 01:46:18;;;;;;;0.63;0.63;;;13.90;99.90;;;;;;5045413;28;20217;-64
2022/11/03 01:48:49;;;;;;;1.00;0.90;;;13.80;99.90;;;;;;5040731;28;20208;-64
2022/11/03 01:51:20;;;;;;;0.90;0.73;;;13.80;99.90;;;;;;5047518;28;20284;-64
2022/11/03 01:53:52;;;;;;;1.10;0.80;;;13.80;99.90;;;;;;5040295;28;20198;-65
2022/11/03 01:56:21;;;;;;;1.27;0.60;;;13.80;99.90;;;;;;5036680;28;20224;-64
2022/11/03 01:58:51;;;;;;;2.13;0.93;;;13.80;99.90;;;;;;5041155;28;20299;-64
2022/11/03 02:01:18;;;;;;;1.07;0.90;;;13.80;99.90;;;;;;5039014;28;20359;-64
2022/11/03 02:03:54;;;;;;;2.10;0.60;;;13.70;99.90;;;;;;5040725;28;20286;-65
2022/11/03 02:06:24;;;;;;;0.70;0.70;;;13.70;99.90;;;;;;5047137;28;20288;-65
2022/11/03 02:08:58;;;;;;;2.10;0.83;;;13.70;99.90;;;;;;5032451;28;20190;-64
2022/11/03 02:14:12;;;;;;;1.30;0.90;;;13.70;99.90;;;;;;5045167;28;20206;-65
2022/11/03 02:16:41;;;;;;;0.80;0.80;;;13.70;99.90;;;;;;5042174;28;20638;-65
2022/11/03 02:19:19;;;;;;;2.77;1.00;;;13.70;99.90;;;;;;5046577;28;20204;-65
2022/11/03 02:21:55;;;;;;;1.63;0.90;;;13.70;99.90;;;;;;5047416;28;20501;-65
2022/11/03 02:24:36;;;;;;;0.77;0.77;;;13.70;99.90;;;;;;5038090;28;20231;-65
2022/11/03 02:27:06;;;;;;;1.80;0.90;;;13.60;99.90;;;;;;5044008;28;20673;-65
2022/11/03 02:29:33;;;;;;;0.90;0.90;;;13.60;99.90;;;;;;5045584;28;20189;-65
2022/11/03 02:32:07;;;;;;;1.20;0.70;;;13.60;99.90;;;;;;5042542;28;20209;-65
2022/11/03 02:34:40;;;;;;;2.90;1.00;;;13.60;99.90;;;;;;5046821;28;20197;-65
2022/11/03 02:37:12;;;;;;;2.00;0.80;;;13.60;99.90;;;;;;5037858;28;20206;-65
2022/11/03 02:39:45;;;;;;;1.67;0.93;;;13.60;99.90;;;;;;5044020;28;20191;-66
2022/11/03 02:42:15;;;;;;;1.13;0.80;;;13.60;99.90;;;;;;5035959;28;20554;-66
2022/11/03 02:44:45;;;;;;;1.73;0.90;;;13.60;99.90;;;;;;5045459;28;20199;-65
2022/11/03 02:47:14;;;;;;;1.17;0.83;;;13.60;99.90;;;;;;5040805;28;20287;-66
2022/11/03 02:49:47;;;;;;;3.33;1.10;;;13.60;99.90;;;;;;5032908;28;20202;-64
2022/11/03 02:52:36;;;;;;;1.23;0.87;;;13.60;99.90;;;;;;5027438;28;20735;-64
2022/11/03 02:55:11;;;;;;;2.07;1.00;;;13.60;99.90;;;;;;5041837;28;20716;-64
2022/11/03 02:57:45;;;;;;;1.87;1.00;;;13.60;99.90;;;;;;5044140;28;20196;-64
2022/11/03 03:00:16;;;;;;;2.27;1.00;;;13.60;99.90;;;;;;5040516;28;20202;-64
2022/11/03 03:02:54;;;;;;;3.07;1.20;;;13.60;99.90;;;;;;5047066;28;20280;-64
2022/11/03 03:05:25;;;;;;;2.20;1.00;;;13.50;99.90;;;;;;5044447;28;20677;-65
2022/11/03 03:07:55;;;;;;;2.37;1.00;;;13.50;99.90;;;;;;5049106;28;20185;-65
2022/11/03 03:10:25;;;;;;;3.20;1.20;;;13.50;99.90;;;;;;5049293;28;20552;-65
2022/11/03 03:12:56;;;;;;;2.37;0.80;;;13.50;99.90;;;;;;5039793;28;20268;-65
2022/11/03 03:15:34;;;;;;;1.10;1.00;;;13.50;99.90;;;;;;5046923;28;20194;-66
2022/11/03 03:18:10;;;;;;;1.87;0.90;;;13.50;99.90;;;;;;5042043;28;20238;-64
2022/11/03 03:20:41;;;;;;;3.33;1.30;;;13.50;99.90;;;;;;5046814;28;20197;-64
2022/11/03 03:23:16;;;;;;;3.40;1.37;;;13.50;99.90;;;;;;5049155;28;20228;-65
2022/11/03 03:25:48;;;;;;;4.57;1.10;;;13.50;99.90;;;;;;5030534;28;20347;-65
2022/11/03 03:28:22;;;;;;;1.70;1.00;;;13.40;99.90;;;;;;5041415;28;20309;-64
2022/11/03 03:30:53;;;;;;;0.90;0.90;;;13.40;99.90;;;;;;5045221;28;20280;-65
2022/11/03 03:33:21;;;;;;;3.53;1.30;;;13.40;99.90;;;;;;5044542;28;20186;-64
2022/11/03 03:35:51;;;;;;;2.93;1.13;;;13.40;99.90;;;;;;5044574;28;20205;-65
2022/11/03 03:38:22;;;;;;;3.83;1.20;;;13.40;99.90;;;;;;5044699;28;20201;-64
2022/11/03 03:40:55;;;;;;;2.03;0.97;;;13.40;99.90;;;;;;5041689;28;20197;-64
2022/11/03 03:43:26;;;;;;;2.63;1.07;;;13.40;99.90;;;;;;5041919;28;20572;-65
2022/11/03 03:45:58;;;;;;;0.97;0.93;;;13.40;99.90;;;;;;5044533;28;20790;-66
2022/11/03 03:48:25;;;;;;;2.27;1.00;;;13.30;99.90;;;;;;5035896;28;20204;-65
2022/11/03 03:50:53;;;;;;;3.13;1.10;;;13.40;99.90;;;;;;5043806;28;20205;-65
2022/11/03 03:53:20;;;;;;;1.43;1.00;;;13.30;99.90;;;;;;5028436;28;20206;-65
2022/11/03 03:55:49;;;;;;;4.43;1.13;;;13.30;99.90;;;;;;5040200;28;20197;-65
2022/11/03 03:58:17;;;;;;;3.77;1.37;;;13.40;99.90;;;;;;5048195;28;20199;-64
2022/11/03 04:00:46;;;;;;;4.97;1.20;;;13.30;99.90;;;;;;5049505;28;20197;-65
2022/11/03 04:03:16;;;;;;;3.87;1.60;;;13.30;99.90;;;;;;5018596;28;20210;-65
2022/11/03 04:05:44;;;;;;;2.97;1.00;;;13.30;99.90;;;;;;5048682;28;20255;-64
2022/11/03 04:08:12;;;;;;;3.13;1.20;;;13.30;99.90;;;;;;5047541;28;20624;-64
2022/11/03 04:10:39;;;;;;;2.97;1.07;;;13.30;99.90;;;;;;5038182;28;20584;-65
2022/11/03 04:24:14;;;;;;;1.83;0.80;;;13.40;99.90;;;;;;5042082;28;20270;-65
2022/11/03 04:26:41;;;;;;;2.40;1.00;;;13.40;99.90;;;;;;5045103;28;20216;-65
2022/11/03 04:29:11;;;;;;;2.70;1.10;;;13.40;99.90;;;;;;5046716;28;20221;-65
2022/11/03 04:31:39;;;;;;;1.43;0.87;;;13.50;99.90;;;;;;5047115;28;20616;-65
2022/11/03 04:34:11;;;;;;;3.13;1.40;;;13.40;99.90;;;;;;5048212;28;20204;-65
2022/11/03 04:36:39;;;;;;;2.50;1.10;;;13.40;99.90;;;;;;5042531;28;20192;-64
2022/11/03 04:39:16;;;;;;;2.30;1.03;;;13.40;99.90;;;;;;5044794;28;20540;-65
2022/11/03 04:41:43;;;;;;;2.70;1.10;;;13.30;99.90;;;;;;5039341;28;20675;-65
2022/11/03 04:44:15;;;;;;;4.63;1.37;;;13.30;99.90;;;;;;5042092;28;20297;-65
2022/11/03 04:46:45;;;;;;;2.70;1.10;;;13.30;99.90;;;;;;5042903;28;20694;-64
2022/11/03 04:49:18;;;;;;;1.77;0.90;;;13.30;99.90;;;;;;5040353;28;20667;-66
2022/11/03 04:51:45;;;;;;;1.40;1.10;;;13.30;99.90;;;;;;5039306;28;20726;-65
2022/11/03 04:54:16;;;;;;;2.53;1.20;;;13.30;99.90;;;;;;5041434;28;20614;-66
2022/11/03 04:56:43;;;;;;;1.30;1.00;;;13.20;99.90;;;;;;5039881;28;20299;-66
2022/11/03 04:59:13;;;;;;;1.70;1.10;;;13.20;99.90;;;;;;5038078;28;20731;-66
2022/11/03 05:01:40;;;;;;;1.00;0.87;;;13.20;99.90;;;;;;5038059;28;20189;-66
2022/11/03 05:04:13;;;;;;;1.10;1.00;;;13.20;99.90;;;;;;5038388;28;20505;-65
2022/11/03 05:06:41;;;;;;;1.53;1.20;;;13.20;99.90;;;;;;5045078;28;20209;-66
2022/11/03 05:09:15;;;;;;;3.80;1.30;;;13.20;99.90;;;;;;5036134;28;20556;-66
2022/11/03 05:11:45;;;;;;;1.13;0.90;;;13.20;99.90;;;;;;5046793;28;20376;-65
2022/11/03 05:14:16;;;;;;;2.90;1.17;;;13.20;99.90;;;;;;5046996;28;20314;-65
2022/11/03 05:16:44;;;;;;;2.13;1.23;;;13.20;99.90;;;;;;5034491;28;20540;-65
2022/11/03 05:19:18;;;;;;;3.67;1.40;;;13.20;99.90;;;;;;5042100;28;20267;-66
2022/11/03 05:21:48;;;;;;;5.37;1.33;;;13.10;99.90;;;;;;5041320;28;21034;-65
2022/11/03 05:24:16;;;;;;;2.83;1.40;;;13.10;99.90;;;;;;5044973;28;20234;-64
2022/11/03 05:26:44;;;;;;;1.63;0.93;;;13.10;99.90;;;;;;5042221;28;20300;-65
2022/11/03 05:29:15;;;;;;;1.37;0.90;;;13.10;99.90;;;;;;5040109;28;20206;-65
2022/11/03 05:31:45;;;;;;;3.93;1.37;;;13.10;99.90;;;;;;5041203;28;20273;-65
2022/11/03 05:34:28;;;;;;;2.90;0.90;;;13.10;99.90;;;;;;5045493;28;20212;-64
2022/11/03 05:36:56;;;;;;;1.37;1.23;;;13.00;99.90;;;;;;5037878;28;20217;-64
2022/11/03 05:39:30;;;;;;;2.83;1.30;;;13.00;99.90;;;;;;5043199;28;20280;-65
2022/11/03 05:41:58;;;;;;;4.00;1.00;;;13.00;99.90;;;;;;5038275;28;20568;-64
2022/11/03 05:44:32;;;;;;;3.37;1.33;;;13.00;99.90;;;;;;5028837;28;20197;-66
2022/11/03 05:47:00;;;;;;;5.97;1.30;;;13.00;99.90;;;;;;5045169;28;20204;-64
2022/11/03 05:49:30;;;;;;;2.43;1.00;;;13.00;99.90;;;;;;5029294;28;20252;-66
2022/11/03 05:51:57;;;;;;;2.07;1.07;;;13.00;99.90;;;;;;5036139;28;20191;-65
2022/11/03 05:54:28;;;;;;;2.70;1.00;;;13.00;99.90;;;;;;5039573;28;20200;-66
2022/11/03 05:56:57;;;;;;;0.80;0.80;;;13.00;99.90;;;;;;5037472;28;20199;-64
2022/11/03 05:59:28;;;;;;;1.77;0.97;;;12.90;99.90;;;;;;5036023;28;20217;-66
2022/11/03 06:01:59;;;;;;;4.07;1.37;;;12.90;99.90;;;;;;5044426;28;20189;-66
2022/11/03 06:04:32;;;;;;;4.17;1.30;;;12.90;99.90;;;;;;5046090;28;20186;-65
2022/11/03 06:07:03;;;;;;;1.43;0.90;;;12.90;99.90;;;;;;5030415;28;20209;-66
2022/11/03 06:09:33;;;;;;;1.53;1.00;;;12.90;99.90;;;;;;5044273;28;20272;-66
2022/11/03 06:12:05;;;;;;;1.03;0.90;;;12.90;99.90;;;;;;5026161;28;20270;-66
2022/11/03 06:14:33;;;;;;;2.33;1.13;;;12.90;99.90;;;;;;5045362;28;20206;-65
2022/11/03 06:17:04;;;;;;;2.00;1.37;;;12.90;99.90;;;;;;5047889;28;20196;-66
2022/11/03 06:19:37;;;;;;;3.57;1.37;;;13.00;99.90;;;;;;5046279;28;20208;-65
2022/11/03 06:22:11;;;;;;;1.53;1.20;;;12.90;99.90;;;;;;5025761;28;20296;-64
2022/11/03 06:24:38;;;;;;;4.43;1.10;;;12.90;99.90;;;;;;5042170;28;20258;-64
2022/11/03 06:27:06;;;;;;;2.97;0.80;;;12.90;99.90;;;;;;5048301;28;20688;-66
2022/11/03 06:29:34;;;;;;;1.10;0.97;;;12.90;99.90;;;;;;5044144;28;20194;-65
2022/11/03 06:32:01;;;;;;;2.27;0.97;;;12.90;99.90;;;;;;5045209;28;20557;-65
2022/11/03 06:34:41;;;;;;;5.33;1.20;;;12.90;99.90;;;;;;5048545;28;20257;-65
2022/11/03 06:37:22;;;;;;;3.17;1.40;;;12.90;99.90;;;;;;5047972;28;20192;-65
2022/11/03 06:39:51;;;;;;;3.33;1.73;;;12.90;99.90;;;;;;5048501;28;20200;-64
2022/11/03 06:42:21;;;;;;;1.73;1.20;;;12.90;99.90;;;;;;5041796;28;20212;-65
2022/11/03 06:44:51;;;;;;;1.57;1.10;;;12.90;99.90;;;;;;5048041;28;20192;-65
2022/11/03 06:47:23;;;;;;;3.80;1.57;;;12.90;99.90;;;;;;5046881;28;20302;-65
2022/11/03 06:49:54;;;;;;;1.80;1.00;;;12.90;99.90;;;;;;5042085;28;20635;-65
2022/11/03 06:52:27;;;;;;;1.70;1.23;;;13.00;99.90;;;;;;5045926;28;20200;-66
2022/11/03 06:55:00;;;;;;;2.80;1.20;;;13.00;99.90;;;;;;5043987;28;20666;-65
2022/11/03 06:57:30;;;;;;;0.90;0.70;;;13.00;99.90;;;;;;5045084;28;20202;-65
2022/11/03 06:59:57;;;;;;;1.47;1.10;;;13.00;99.90;;;;;;5050477;28;20232;-65
2022/11/03 07:02:53;;;;;;;2.03;1.10;;;13.00;99.90;;;;;;5041986;28;20612;-64
2022/11/03 07:05:24;;;;;;;1.83;1.13;;;13.00;99.90;;;;;;5035406;28;20219;-64
2022/11/03 07:07:57;;;;;;;2.50;1.70;;;13.00;99.90;;;;;;5028241;28;20215;-65
2022/11/03 07:10:26;;;;;;;2.97;2.20;;;12.90;99.90;;;;;;5033356;28;20241;-65
2022/11/03 07:12:55;;;;;;;4.27;2.80;;;13.00;99.90;;;;;;5036217;28;20642;-65
2022/11/03 07:15:29;;;;;;;2.90;2.13;;;13.00;99.90;;;;;;5036557;28;20599;-65
2022/11/03 07:17:57;;;;;;;4.87;2.30;;;13.10;99.90;;;;;;5042444;28;20189;-64
2022/11/03 07:20:26;;;;;;;4.17;2.17;;;13.10;99.90;;;;;;5038518;28;20196;-66
2022/11/03 07:22:56;;;;;;;2.50;1.90;;;13.10;99.90;;;;;;5045296;28;20476;-63
2022/11/03 07:25:23;;;;;;;2.03;1.70;;;13.20;99.90;;;;;;5015740;28;20218;-65
2022/11/03 07:27:52;;;;;;;2.83;2.13;;;13.20;99.90;;;;;;5032971;28;20237;-65
2022/11/03 07:30:22;;;;;;;4.07;2.27;;;13.20;99.90;;;;;;5039519;28;20196;-65
2022/11/03 07:32:52;;;;;;;1.90;1.53;;;13.20;99.90;;;;;;5043707;28;20196;-65
2022/11/03 07:35:33;;;;;;;5.27;1.90;;;13.20;99.90;;;;;;5046565;28;20196;-65
2022/11/03 07:38:09;;;;;;;8.97;1.93;;;13.30;99.90;;;;;;5039845;28;20185;-64
2022/11/03 07:40:37;;;;;;;4.87;1.90;;;13.30;99.90;;;;;;5042935;28;20840;-64
2022/11/03 07:43:14;;;;;;;6.07;2.60;;;13.30;99.90;;;;;;5037617;28;20205;-64
2022/11/03 07:45:44;;;;;;;2.93;2.07;;;13.30;99.90;;;;;;5036290;28;20200;-64
2022/11/03 07:48:23;;;;;;;2.27;1.80;;;13.40;99.90;;;;;;5037498;28;20240;-65
2022/11/03 07:50:54;;;;;;;4.23;1.97;;;13.40;99.90;;;;;;5039541;28;20698;-64
2022/11/03 07:53:29;;;;;;;4.67;2.40;;;13.40;99.90;;;;;;5037640;28;20208;-65
2022/11/03 07:55:57;;;;;;;10.60;2.63;;;13.50;99.90;;;;;;5036681;28;20223;-65
2022/11/03 07:58:33;;;;;;;3.50;1.70;;;13.50;99.90;;;;;;5040533;28;20193;-65
2022/11/03 08:01:02;;;;;;;1.60;1.50;;;13.40;99.90;;;;;;5043161;28;20217;-64
2022/11/03 08:03:42;;;;;;;1.53;1.40;;;13.50;99.90;;;;;;5039694;28;20196;-65
2022/11/03 08:06:10;;;;;;;1.70;1.30;;;13.50;99.90;;;;;;5024630;28;20194;-66
2022/11/03 08:08:38;;;;;;;3.83;1.20;;;13.60;99.90;;;;;;5045252;28;20308;-65
2022/11/03 08:11:06;;;;;;;8.43;1.70;;;13.70;99.90;;;;;;5046085;28;20521;-64
2022/11/03 08:13:33;;;;;;;6.20;2.27;;;13.80;99.90;;;;;;5032617;28;20285;-64
2022/11/03 08:16:00;;;;;;;2.40;1.67;;;13.80;99.90;;;;;;5036368;28;20205;-65
2022/11/03 08:18:28;;;;;;;1.77;1.47;;;13.80;99.90;;;;;;5034968;28;20233;-64
2022/11/03 08:20:55;;;;;;;2.60;1.73;;;13.80;99.90;;;;;;5041608;28;20208;-65
2022/11/03 08:23:23;;;;;;;2.53;1.57;;;13.90;99.90;;;;;;5042061;28;20588;-65
2022/11/03 08:25:51;;;;;;;3.67;1.57;;;14.00;99.90;;;;;;5040592;28;20560;-66
2022/11/03 08:28:18;;;;;;;2.50;1.47;;;14.00;99.90;;;;;;5035352;28;20230;-65
2022/11/03 08:30:45;;;;;;;3.50;1.80;;;14.10;99.90;;;;;;5040993;28;20202;-65
2022/11/03 08:33:12;;;;;;;2.50;1.63;;;14.20;99.90;;;;;;5040383;28;20545;-66
2022/11/03 08:35:40;;;;;;;3.80;2.00;;;14.20;99.90;;;;;;5038842;28;20193;-65
2022/11/03 08:38:07;;;;;;;3.33;1.30;;;14.20;99.90;;;;;;5038538;28;20610;-65
2022/11/03 08:40:36;;;;;;;3.00;1.40;;;14.20;99.90;;;;;;5023802;28;20199;-64
2022/11/03 08:43:05;;;;;;;4.27;1.50;;;14.30;99.90;;;;;;5035573;28;20205;-66
2022/11/03 08:45:32;;;;;;;2.00;1.80;;;14.40;99.90;;;;;;5043037;28;20189;-66
2022/11/03 08:47:59;;;;;;;6.17;2.40;;;14.40;99.90;;;;;;5034012;28;20291;-65
2022/11/03 08:50:26;;;;;;;2.53;1.70;;;14.40;99.90;;;;;;5042722;28;20190;-66
2022/11/03 08:52:54;;;;;;;2.47;1.63;;;14.40;99.90;;;;;;5029643;28;20209;-66
2022/11/03 08:55:21;;;;;;;7.73;2.47;;;14.40;99.90;;;;;;5035784;28;20198;-65
2022/11/03 08:57:49;;;;;;;1.97;1.50;;;14.40;99.90;;;;;;5024452;28;20187;-65
2022/11/03 09:00:17;;;;;;;5.23;2.07;;;14.40;99.90;;;;;;5043791;28;20359;-65
2022/11/03 09:02:45;;;;;;;3.53;1.70;;;14.50;99.90;;;;;;5043077;28;20300;-66
2022/11/03 09:05:13;;;;;;;3.00;1.70;;;14.50;99.90;;;;;;5043250;28;20198;-65
2022/11/03 09:07:40;;;;;;;5.30;2.10;;;14.50;99.90;;;;;;5029856;28;20231;-64
2022/11/03 09:10:10;;;;;;;2.93;1.60;;;14.50;99.90;;;;;;5035134;28;20204;-65
2022/11/03 09:12:37;;;;;;;2.33;1.50;;;14.60;99.90;;;;;;5036983;28;20660;-65
2022/11/03 09:15:07;;;;;;;4.63;2.30;;;14.60;99.90;;;;;;5035828;28;20278;-65
2022/11/03 09:17:35;;;;;;;4.00;1.73;;;14.70;99.90;;;;;;5039151;28;20339;-65
2022/11/03 09:20:02;;;;;;;1.43;1.20;;;14.70;99.90;;;;;;5024982;28;20307;-65
2022/11/03 09:22:29;;;;;;;2.87;1.50;;;14.80;99.90;;;;;;5038252;28;20201;-65
2022/11/03 09:24:57;;;;;;;1.73;1.60;;;14.80;99.90;;;;;;5042134;28;20237;-64
2022/11/03 09:27:24;;;;;;;6.43;1.23;;;14.90;99.90;;;;;;5037463;28;20206;-65
2022/11/03 09:29:51;;;;;;;2.87;1.13;;;15.00;99.90;;;;;;5039301;28;20236;-65
2022/11/03 09:32:20;;;;;;;1.20;1.00;;;15.10;99.90;;;;;;5037033;28;20287;-65
2022/11/03 09:34:47;;;;;;;5.03;1.30;;;15.20;99.90;;;;;;5039135;28;20198;-64
2022/11/03 09:37:15;;;;;;;1.70;0.80;;;15.20;99.90;;;;;;5038245;28;20205;-66
2022/11/03 09:39:43;;;;;;;1.87;1.00;;;15.20;99.90;;;;;;5034154;28;20199;-65
2022/11/03 09:42:11;;;;;;;1.77;1.00;;;15.30;99.90;;;;;;5031866;28;20271;-66
2022/11/03 09:44:39;;;;;;;3.07;1.20;;;15.40;99.90;;;;;;5035005;28;20681;-65
2022/11/03 09:47:06;;;;;;;2.13;1.30;;;15.50;99.90;;;;;;5037075;28;20300;-65
2022/11/03 09:49:36;;;;;;;1.77;1.10;;;15.80;99.90;;;;;;5032570;28;20338;-64
2022/11/03 09:52:05;;;;;;;1.10;1.00;;;16.20;99.90;;;;;;5043597;28;20191;-66
2022/11/03 09:54:32;;;;;;;3.77;1.20;;;16.50;99.90;;;;;;5041522;28;20593;-65
2022/11/03 09:57:09;;;;;;;3.80;1.30;;;16.70;99.30;;;;;;5040191;28;20196;-65
2022/11/03 09:59:38;;;;;;;1.17;0.90;;;16.70;98.70;;;;;;5036401;28;20212;-64
2022/11/03 10:02:20;;;;;;;2.97;1.20;;;16.80;98.50;;;;;;5044722;28;20197;-65
2022/11/03 10:04:49;;;;;;;1.80;1.07;;;16.90;97.70;;;;;;5032999;28;21149;-65
2022/11/03 10:07:16;;;;;;;6.10;1.13;;;17.10;97.40;;;;;;5039879;28;20301;-65
2022/11/03 10:09:46;;;;;;;3.27;1.33;;;17.10;96.70;;;;;;5039882;28;20209;-65
2022/11/03 10:12:13;;;;;;;2.37;1.10;;;17.10;96.10;;;;;;5048490;28;20710;-64
2022/11/03 10:14:41;;;;;;;1.23;1.00;;;16.90;96.20;;;;;;5039008;28;20218;-64
2022/11/03 10:17:17;;;;;;;2.30;1.17;;;16.80;96.30;;;;;;5038274;28;20200;-66
2022/11/03 10:19:47;;;;;;;4.30;1.30;;;16.80;96.20;;;;;;5022282;28;20565;-66
2022/11/03 10:22:16;;;;;;;0.90;0.90;;;16.80;96.00;;;;;;5043861;28;20668;-65
2022/11/03 10:24:43;;;;;;;4.28;1.02;;;16.90;95.60;;;;;;5048920;28;20238;-66
2022/11/03 10:27:21;;;;;;;2.10;0.90;;;16.90;95.30;;;;;;5042690;28;20621;-65
2022/11/03 10:30:07;;;;;;;2.97;1.30;;;16.80;95.10;;;;;;5045044;28;20685;-65
2022/11/03 10:32:34;;;;;;;1.97;1.20;;;16.70;93.80;;;;;;5047041;28;20664;-65
2022/11/03 10:35:02;;;;;;;2.13;1.10;;;16.50;94.00;;;;;;5044749;28;21713;-65
2022/11/03 10:37:31;;;;;;;1.87;0.80;;;16.40;94.30;;;;;;5037327;28;20660;-64
2022/11/03 10:39:59;;;;;;;3.47;0.97;;;16.30;94.50;;;;;;5041586;28;20466;-64
2022/11/03 10:42:29;;;;;;;6.33;1.23;;;16.20;94.20;;;;;;5039952;28;20689;-65
2022/11/03 10:45:12;;;;;;;3.83;1.50;;;16.10;93.50;;;;;;5045005;28;20195;-65
2022/11/03 10:47:39;;;;;;;1.70;1.23;;;16.00;93.70;;;;;;5047838;28;20218;-65
2022/11/03 10:50:21;;;;;;;2.83;0.90;;;15.90;93.90;;;;;;5024205;28;20198;-65
2022/11/03 10:52:51;;;;;;;2.40;1.20;;;15.90;93.80;;;;;;5040877;28;20288;-65
2022/11/03 10:55:19;;;;;;;3.03;1.03;;;15.90;93.50;;;;;;5030141;28;20199;-66
2022/11/03 10:57:48;;;;;;;2.97;1.40;;;15.80;93.90;;;;;;5039405;28;20662;-65
2022/11/03 11:00:19;;;;;;;5.03;1.90;;;15.70;93.20;;;;;;5039763;28;21771;-65
2022/11/03 11:02:48;;;;;;;2.37;1.20;;;15.70;93.10;;;;;;5019348;28;20695;-64
2022/11/03 11:05:19;;;;;;;3.07;1.23;;;15.70;93.20;;;;;;5033471;28;20196;-64
2022/11/03 11:07:50;;;;;;;4.63;1.23;;;15.60;93.10;;;;;;5046179;28;20878;-64
2022/11/03 11:10:21;;;;;;;3.83;1.37;;;15.60;93.20;;;;;;5048156;28;20225;-64
2022/11/03 11:13:24;;;;;;;2.30;1.00;;;15.60;93.10;;;;;;5044515;28;20277;-65
2022/11/03 11:15:53;;;;;;;1.53;0.90;;;15.60;93.00;;;;;;5042362;28;20190;-63
2022/11/03 11:19:10;;;;;;;2.73;1.00;;;15.60;92.70;;;;;;5037893;28;20202;-64
2022/11/03 11:22:02;;;;;;;1.87;0.93;;;15.60;92.80;;;;;;5041339;28;20195;-65
2022/11/03 11:25:03;;;;;;;3.17;1.07;;;15.60;92.80;;;;;;5038612;28;20237;-65
2022/11/03 11:27:58;;;;;;;4.07;1.53;;;15.50;92.80;;;;;;5045786;28;20201;-66
2022/11/03 11:31:01;;;;;;;3.03;1.03;;;15.50;92.60;;;;;;5045204;28;20281;-65
2022/11/03 11:33:31;;;;;;;0.97;0.90;;;15.50;92.80;;;;;;5040082;28;20189;-66
2022/11/03 11:36:22;;;;;;;4.43;1.30;;;15.40;92.60;;;;;;5047433;28;20674;-65
2022/11/03 11:39:00;;;;;;;4.20;1.20;;;15.40;92.70;;;;;;5035049;28;20198;-65
2022/11/03 11:42:04;;;;;;;6.50;1.97;;;15.30;92.60;;;;;;5041535;28;20185;-65
2022/11/03 11:45:01;;;;;;;1.13;0.90;;;15.30;92.50;;;;;;5041633;28;20194;-64
2022/11/03 11:47:48;;;;;;;1.60;1.20;;;15.20;92.70;;;;;;5025413;28;20294;-66
2022/11/03 11:50:30;;;;;;;1.37;0.70;;;15.20;92.90;;;;;;5022857;28;20197;-65
2022/11/03 11:53:20;;;;;;;4.03;1.27;;;15.20;93.00;;;;;;5034833;28;20198;-64
2022/11/03 11:55:51;;;;;;;1.13;1.03;;;15.20;93.10;;;;;;5037549;28;20205;-65
2022/11/03 11:58:22;;;;;;;5.47;1.90;;;15.20;93.20;;;;;;5039955;28;20194;-65
2022/11/03 12:00:57;;;;;;;4.20;1.97;;;15.30;93.40;;;;;;5046635;28;20195;-65
2022/11/03 12:03:32;;;;;;;5.57;2.30;;;15.20;93.50;;;;;;5037309;28;20198;-65
2022/11/03 12:05:59;;;;;;;2.97;1.87;;;15.20;93.70;;;;;;5033324;28;20601;-66
2022/11/03 12:08:29;;;;;;;3.83;1.40;;;15.20;93.90;;;;;;5038327;28;20213;-66
2022/11/03 12:10:59;;;;;;;3.13;1.87;;;15.20;94.00;;;;;;5037649;28;20350;-65
2022/11/03 12:13:43;;;;;;;6.20;2.00;;;15.20;94.30;;;;;;5038674;28;20281;-64
2022/11/03 12:16:27;;;;;;;4.17;1.93;;;15.20;94.40;;;;;;5035329;28;20204;-65
2022/11/03 12:18:55;;;;;;;5.90;1.80;;;15.80;94.90;;;;;;5040823;28;20293;-65
2022/11/03 12:21:47;;;;;;;2.20;1.93;;;15.20;94.80;;;;;;5035108;28;20300;-65
2022/11/03 12:24:35;;;;;;;6.87;2.17;;;15.20;94.90;;;;;;5037996;28;20706;-65
2022/11/03 12:27:18;;;;;;;4.77;2.20;;;15.10;94.90;;;;;;5037175;28;20207;-65
2022/11/03 12:29:45;;;;;;;3.33;2.23;;;15.10;95.00;;;;;;5039403;28;20209;-65
2022/11/03 12:32:14;;;;;;;4.07;2.10;;;15.10;95.20;;;;;;5041085;28;20209;-65
2022/11/03 12:34:41;;;;;;;7.33;2.20;;;15.10;95.30;;;;;;5041788;28;20198;-64
2022/11/03 12:37:09;;;;;;;4.90;2.40;;;15.00;95.40;;;;;;5041813;28;20248;-65
2022/11/03 12:39:36;;;;;;;8.40;2.50;;;15.00;95.60;;;;;;5038408;28;20202;-65
2022/11/03 12:42:04;;;;;;;3.60;2.30;;;15.00;95.80;;;;;;5036302;28;20293;-65
2022/11/03 12:44:32;;;;;;;5.03;2.00;;;14.90;95.80;;;;;;5038577;28;20867;-64
2022/11/03 12:47:03;;;;;;;3.97;1.97;;;14.90;95.90;;;;;;5037599;28;20654;-65
2022/11/03 12:49:36;;;;;;;7.53;2.07;;;14.80;96.20;;;;;;5035534;28;20194;-66
2022/11/03 12:52:05;;;;;;;5.10;1.80;;;14.90;96.00;;;;;;5040865;28;20197;-66
2022/11/03 12:54:35;;;;;;;3.93;1.50;;;15.00;96.30;;;;;;5038326;28;20216;-67
2022/11/03 12:57:08;;;;;;;4.13;2.07;;;14.80;96.10;;;;;;5037333;28;20589;-65
2022/11/03 12:59:40;;;;;;;2.07;1.40;;;14.80;96.10;;;;;;5038362;28;20656;-66
2022/11/03 13:02:11;;;;;;;2.30;1.60;;;15.10;96.30;;;;;;5042355;28;20205;-65
2022/11/03 13:04:40;;;;;;;3.70;1.83;;;14.90;96.20;;;;;;5037483;28;20205;-65
2022/11/03 13:07:07;;;;;;;6.67;2.17;;;14.90;96.00;;;;;;5045314;28;20220;-65
2022/11/03 13:09:35;;;;;;;6.20;2.00;;;15.00;96.00;;;;;;5035516;28;20284;-65
2022/11/03 13:14:48;;;;;;;5.10;2.00;;;14.90;95.90;;;;;;5042150;28;20222;-64
2022/11/03 13:17:15;;;;;;;7.47;2.63;;;15.00;95.90;;;;;;5040739;28;20202;-65
2022/11/03 13:19:44;;;;;;;7.17;2.43;;;15.00;95.80;;;;;;5035466;28;20311;-65
2022/11/03 13:22:11;;;;;;;3.90;1.90;;;15.00;95.60;;;;;;5041286;28;20558;-64
2022/11/03 13:24:38;;;;;;;3.60;2.00;;;15.00;95.60;;;;;;5038539;28;20314;-65
2022/11/03 13:27:07;;;;;;;4.97;2.30;;;15.00;95.60;;;;;;5039148;28;20289;-65
2022/11/03 13:29:35;;;;;;;5.67;2.93;;;15.00;95.60;;;;;;5019763;28;20215;-65
2022/11/03 13:32:02;;;;;;;8.03;3.17;;;15.00;95.70;;;;;;5038950;28;20198;-65